createdAt,value
2022-10-11T00:00:46.643Z,0
2022-10-11T00:06:20.736Z,0
2022-10-11T00:12:07.262Z,0
2022-10-11T00:17:43.862Z,0
2022-10-11T00:23:24.200Z,0
2022-10-11T00:28:36.421Z,0
2022-10-11T00:34:27.398Z,0
2022-10-11T00:39:54.262Z,0
2022-10-11T00:45:39.362Z,0
2022-10-11T00:51:01.067Z,0
2022-10-11T00:56:39.406Z,0
2022-10-11T01:02:12.281Z,0
2022-10-11T01:07:47.028Z,0
2022-10-11T01:13:02.920Z,0
2022-10-11T01:18:33.626Z,0
2022-10-11T01:24:19.545Z,0
2022-10-11T01:29:44.560Z,0
2022-10-11T01:35:38.555Z,0
2022-10-11T01:41:05.273Z,0
2022-10-11T01:46:31.614Z,0
2022-10-11T01:52:11.022Z,0
2022-10-11T01:57:44.000Z,0
2022-10-11T02:03:18.171Z,0
2022-10-11T02:09:03.315Z,3.6
2022-10-11T02:14:07.192Z,0
2022-10-11T02:19:53.938Z,0
2022-10-11T02:25:21.897Z,0
2022-10-11T02:30:56.176Z,0
2022-10-11T02:36:44.035Z,0
2022-10-11T02:42:08.377Z,0
2022-10-11T02:47:37.956Z,0
2022-10-11T02:53:13.488Z,0
2022-10-11T02:58:57.319Z,0
2022-10-11T03:04:24.568Z,0
2022-10-11T03:09:44.422Z,0
2022-10-11T03:15:32.737Z,0
2022-10-11T03:21:07.393Z,0
2022-10-11T03:26:21.399Z,0
2022-10-11T03:31:56.259Z,0
2022-10-11T03:37:47.475Z,0
2022-10-11T03:43:15.896Z,0
2022-10-11T03:48:53.732Z,0
2022-10-11T03:54:11.776Z,0
2022-10-11T03:59:39.420Z,0
2022-10-11T04:05:15.076Z,0
2022-10-11T04:11:02.164Z,0
2022-10-11T04:16:33.851Z,0
2022-10-11T04:22:01.462Z,0
2022-10-11T04:27:34.992Z,0
2022-10-11T04:32:57.960Z,0
2022-10-11T04:38:48.899Z,0
2022-10-11T04:44:25.431Z,0
2022-10-11T04:49:49.281Z,0
2022-10-11T04:55:37.188Z,0
2022-10-11T05:01:05.702Z,0
2022-10-11T05:06:36.433Z,0
2022-10-11T05:11:58.958Z,0
2022-10-11T05:17:47.058Z,0
2022-10-11T05:23:19.413Z,0
2022-10-11T05:28:46.279Z,0
2022-10-11T05:34:21.588Z,0
2022-10-11T05:40:03.466Z,0
2022-10-11T05:50:48.850Z,0
2022-10-11T05:56:23.209Z,0
2022-10-11T06:18:41.989Z,3.6
2022-10-11T06:29:45.421Z,0
2022-10-11T06:35:25.326Z,0
2022-10-11T06:41:04.627Z,0
2022-10-11T07:25:28.374Z,0
2022-10-11T07:30:58.913Z,0
2022-10-11T07:36:31.783Z,2.4
2022-10-11T07:42:23.807Z,0
2022-10-11T07:47:52.031Z,0
2022-10-11T07:53:18.769Z,0
2022-10-11T07:59:06.488Z,0
2022-10-11T08:04:38.625Z,0
2022-10-11T08:10:19.049Z,0
2022-10-11T08:15:37.908Z,0
2022-10-11T08:21:14.242Z,0
2022-10-11T08:26:43.402Z,2.4
2022-10-11T08:32:21.536Z,3.6
2022-10-11T08:37:58.742Z,4.8
2022-10-11T08:43:50.521Z,4.8
2022-10-11T08:49:07.135Z,5.9
2022-10-11T08:54:55.612Z,5.9
2022-10-11T09:00:34.571Z,3.6
2022-10-11T09:05:52.731Z,3.6
2022-10-11T09:11:42.122Z,3.6
2022-10-11T09:17:03.761Z,4.8
2022-10-11T09:23:00.754Z,5.9
2022-10-11T09:28:20.034Z,5.9
2022-10-11T09:33:50.687Z,5.9
2022-10-11T09:39:28.354Z,4.8
2022-10-11T09:45:07.587Z,5.9
2022-10-11T10:07:25.022Z,7.2
2022-10-11T10:13:00.800Z,8.4
2022-10-11T10:18:50.810Z,9.6
2022-10-11T10:24:20.790Z,8.4
2022-10-11T10:30:00.952Z,5.9
2022-10-11T10:35:36.594Z,4.8
2022-10-11T10:41:07.261Z,8.4
2022-10-11T10:46:59.751Z,7.2
2022-10-11T10:52:18.360Z,4.8
2022-10-11T10:58:07.599Z,4.8
2022-10-11T11:03:28.222Z,8.4
2022-10-11T11:09:26.250Z,5.9
2022-10-11T11:14:57.190Z,7.2
2022-10-11T11:20:40.203Z,7.2
2022-10-11T11:26:09.141Z,7.2
2022-10-11T11:31:51.044Z,7.2
2022-10-11T11:37:05.693Z,5.9
2022-10-11T11:42:56.586Z,7.2
2022-10-11T11:48:21.551Z,4.8
2022-10-11T11:53:54.981Z,8.4
2022-10-11T11:59:55.250Z,8.4
2022-10-11T16:29:20.232Z,3.6
2022-10-11T16:34:37.633Z,0
2022-10-11T16:46:06.504Z,0
2022-10-11T16:57:05.817Z,0
2022-10-11T17:02:22.328Z,2.4
2022-10-11T17:13:37.443Z,3.6
2022-10-11T17:19:14.458Z,0
2022-10-11T17:24:50.743Z,0
2022-10-11T17:35:52.351Z,0
2022-10-11T17:41:31.976Z,0
2022-10-11T17:47:12.510Z,0
2022-10-11T17:58:12.517Z,0
2022-10-11T18:03:59.185Z,0
2022-10-11T18:54:17.011Z,0
2022-10-11T20:51:13.888Z,0
2022-10-11T21:52:07.845Z,0
2022-10-11T21:58:01.714Z,0
2022-10-11T22:03:26.047Z,0
2022-10-11T22:08:48.083Z,0
2022-10-11T22:14:38.295Z,0
2022-10-11T22:20:15.075Z,0
2022-10-11T22:31:06.811Z,0
2022-10-11T22:37:00.711Z,0
